sensor_id;sensor_type;location;lat;lon;timestamp;pressure;altitude;pressure_sealevel;temperature;humidity
29433;BME280;16405;53.964;13.448;2023-03-26T00:01:59;99448.19;;;6.80;100.00
29433;BME280;16405;53.964;13.448;2023-03-26T00:04:25;99448.97;;;6.82;100.00
29433;BME280;16405;53.964;13.448;2023-03-26T00:06:51;99450.81;;;6.80;100.00
29433;BME280;16405;53.964;13.448;2023-03-26T00:09:18;99454.19;;;6.82;100.00
29433;BME280;16405;53.964;13.448;2023-03-26T00:11:44;99458.66;;;6.80;100.00
29433;BME280;16405;53.964;13.448;2023-03-26T00:14:20;99456.97;;;6.78;100.00
29433;BME280;16405;53.964;13.448;2023-03-26T00:16:46;99456.22;;;6.76;100.00
29433;BME280;16405;53.964;13.448;2023-03-26T00:19:14;99461.75;;;6.70;100.00
29433;BME280;16405;53.964;13.448;2023-03-26T00:21:49;99468.75;;;6.70;100.00
29433;BME280;16405;53.964;13.448;2023-03-26T00:24:16;99467.06;;;6.69;100.00
29433;BME280;16405;53.964;13.448;2023-03-26T00:26:44;99474.84;;;6.70;100.00
29433;BME280;16405;53.964;13.448;2023-03-26T00:29:17;99471.63;;;6.65;100.00
29433;BME280;16405;53.964;13.448;2023-03-26T00:31:43;99477.91;;;6.61;100.00
29433;BME280;16405;53.964;13.448;2023-03-26T00:34:13;99465.50;;;6.65;100.00
29433;BME280;16405;53.964;13.448;2023-03-26T00:36:43;99475.84;;;6.68;100.00
29433;BME280;16405;53.964;13.448;2023-03-26T00:39:11;99473.34;;;6.65;100.00
29433;BME280;16405;53.964;13.448;2023-03-26T00:41:41;99475.38;;;6.60;100.00
29433;BME280;16405;53.964;13.448;2023-03-26T00:44:10;99477.91;;;6.61;100.00
29433;BME280;16405;53.964;13.448;2023-03-26T00:46:36;99480.44;;;6.63;100.00
29433;BME280;16405;53.964;13.448;2023-03-26T00:49:02;99479.47;;;6.65;100.00
29433;BME280;16405;53.964;13.448;2023-03-26T00:51:29;99478.47;;;6.68;100.00
29433;BME280;16405;53.964;13.448;2023-03-26T00:53:56;99477.69;;;6.66;100.00
29433;BME280;16405;53.964;13.448;2023-03-26T00:56:25;99487.13;;;6.68;100.00
29433;BME280;16405;53.964;13.448;2023-03-26T00:58:51;99477.38;;;6.72;100.00
29433;BME280;16405;53.964;13.448;2023-03-26T01:01:23;99479.00;;;6.74;100.00
29433;BME280;16405;53.964;13.448;2023-03-26T01:03:56;99479.91;;;6.73;100.00
29433;BME280;16405;53.964;13.448;2023-03-26T01:06:33;99486.84;;;6.74;100.00
29433;BME280;16405;53.964;13.448;2023-03-26T01:09:16;99486.00;;;6.74;100.00
29433;BME280;16405;53.964;13.448;2023-03-26T01:11:45;99485.91;;;6.75;100.00
29433;BME280;16405;53.964;13.448;2023-03-26T01:14:23;99498.13;;;6.75;100.00
29433;BME280;16405;53.964;13.448;2023-03-26T01:16:58;99496.38;;;6.75;100.00
29433;BME280;16405;53.964;13.448;2023-03-26T01:22:22;99505.75;;;6.80;100.00
29433;BME280;16405;53.964;13.448;2023-03-26T01:24:49;99504.38;;;6.72;100.00
29433;BME280;16405;53.964;13.448;2023-03-26T01:27:46;99501.84;;;6.71;100.00
29433;BME280;16405;53.964;13.448;2023-03-26T01:30:38;99512.06;;;6.75;100.00
29433;BME280;16405;53.964;13.448;2023-03-26T01:33:28;99513.84;;;6.75;100.00
29433;BME280;16405;53.964;13.448;2023-03-26T01:36:25;99512.16;;;6.74;100.00
29433;BME280;16405;53.964;13.448;2023-03-26T01:42:10;99514.59;;;6.77;100.00
29433;BME280;16405;53.964;13.448;2023-03-26T01:47:20;99516.44;;;6.75;100.00
29433;BME280;16405;53.964;13.448;2023-03-26T01:49:47;99527.75;;;6.75;100.00
29433;BME280;16405;53.964;13.448;2023-03-26T01:52:31;99526.09;;;6.74;100.00
29433;BME280;16405;53.964;13.448;2023-03-26T01:55:20;99524.38;;;6.73;100.00
29433;BME280;16405;53.964;13.448;2023-03-26T02:01:29;99534.22;;;6.68;100.00
29433;BME280;16405;53.964;13.448;2023-03-26T02:04:31;99526.75;;;6.61;100.00
29433;BME280;16405;53.964;13.448;2023-03-26T02:10:34;99537.97;;;6.45;100.00
29433;BME280;16405;53.964;13.448;2023-03-26T02:13:21;99546.81;;;6.43;100.00
29433;BME280;16405;53.964;13.448;2023-03-26T02:15:59;99545.75;;;6.47;100.00
29433;BME280;16405;53.964;13.448;2023-03-26T02:21:49;99553.41;;;6.50;100.00
29433;BME280;16405;53.964;13.448;2023-03-26T02:24:28;99551.97;;;6.44;100.00
29433;BME280;16405;53.964;13.448;2023-03-26T02:26:57;99555.13;;;6.51;100.00
29433;BME280;16405;53.964;13.448;2023-03-26T02:29:37;99556.69;;;6.55;100.00
29433;BME280;16405;53.964;13.448;2023-03-26T02:32:13;99555.63;;;6.59;100.00
29433;BME280;16405;53.964;13.448;2023-03-26T02:34:40;99557.47;;;6.57;100.00
29433;BME280;16405;53.964;13.448;2023-03-26T02:37:18;99554.06;;;6.55;100.00
29433;BME280;16405;53.964;13.448;2023-03-26T02:40:12;99554.06;;;6.55;100.00
29433;BME280;16405;53.964;13.448;2023-03-26T02:42:38;99557.75;;;6.51;100.00
29433;BME280;16405;53.964;13.448;2023-03-26T02:45:28;99555.13;;;6.51;100.00
29433;BME280;16405;53.964;13.448;2023-03-26T02:48:11;99564.09;;;6.45;100.00
29433;BME280;16405;53.964;13.448;2023-03-26T02:51:08;99565.34;;;6.38;100.00
29433;BME280;16405;53.964;13.448;2023-03-26T02:53:37;99573.47;;;6.32;100.00
29433;BME280;16405;53.964;13.448;2023-03-26T02:56:10;99568.63;;;6.24;100.00
29433;BME280;16405;53.964;13.448;2023-03-26T02:59:12;99579.13;;;6.23;100.00
29433;BME280;16405;53.964;13.448;2023-03-26T03:02:02;99579.97;;;6.23;100.00
29433;BME280;16405;53.964;13.448;2023-03-26T03:04:28;99579.69;;;6.29;100.00
29433;BME280;16405;53.964;13.448;2023-03-26T03:10:09;99583.84;;;6.33;100.00
29433;BME280;16405;53.964;13.448;2023-03-26T03:12:59;99584.69;;;6.34;100.00
29433;BME280;16405;53.964;13.448;2023-03-26T03:15:27;99590.69;;;6.36;100.00
29433;BME280;16405;53.964;13.448;2023-03-26T03:20:32;99587.66;;;6.45;100.00
29433;BME280;16405;53.964;13.448;2023-03-26T03:23:09;99600.50;;;6.50;100.00
29433;BME280;16405;53.964;13.448;2023-03-26T03:25:47;99594.28;;;6.52;100.00
29433;BME280;16405;53.964;13.448;2023-03-26T03:28:27;99595.19;;;6.51;100.00
29433;BME280;16405;53.964;13.448;2023-03-26T03:31:06;99598.66;;;6.52;100.00
29433;BME280;16405;53.964;13.448;2023-03-26T03:37:17;99603.13;;;6.50;100.00
29433;BME280;16405;53.964;13.448;2023-03-26T03:43:11;99603.88;;;6.52;100.00
29433;BME280;16405;53.964;13.448;2023-03-26T03:45:49;99605.72;;;6.50;100.00
29433;BME280;16405;53.964;13.448;2023-03-26T03:48:28;99603.03;;;6.51;100.00
29433;BME280;16405;53.964;13.448;2023-03-26T03:51:10;99610.53;;;6.59;100.00
29433;BME280;16405;53.964;13.448;2023-03-26T03:53:36;99604.66;;;6.54;100.00
29433;BME280;16405;53.964;13.448;2023-03-26T03:56:10;99611.81;;;6.50;100.00
29433;BME280;16405;53.964;13.448;2023-03-26T03:58:50;99613.44;;;6.53;100.00
29433;BME280;16405;53.964;13.448;2023-03-26T04:01:19;99613.44;;;6.53;100.00
29433;BME280;16405;53.964;13.448;2023-03-26T04:04:10;99613.56;;;6.50;100.00
29433;BME280;16405;53.964;13.448;2023-03-26T04:06:36;99616.19;;;6.50;100.00
29433;BME280;16405;53.964;13.448;2023-03-26T04:09:03;99609.34;;;6.47;100.00
29433;BME280;16405;53.964;13.448;2023-03-26T04:12:29;99614.72;;;6.44;100.00
29433;BME280;16405;53.964;13.448;2023-03-26T04:17:50;99614.78;;;6.43;100.00
29433;BME280;16405;53.964;13.448;2023-03-26T04:20:58;99615.84;;;6.39;100.00
29433;BME280;16405;53.964;13.448;2023-03-26T04:23:27;99621.09;;;6.39;100.00
29433;BME280;16405;53.964;13.448;2023-03-26T04:26:03;99622.09;;;6.36;100.00
29433;BME280;16405;53.964;13.448;2023-03-26T04:32:01;99611.78;;;6.33;100.00
29433;BME280;16405;53.964;13.448;2023-03-26T04:34:39;99609.44;;;6.27;100.00
29433;BME280;16405;53.964;13.448;2023-03-26T04:37:31;99616.00;;;6.16;100.00
29433;BME280;16405;53.964;13.448;2023-03-26T04:40:00;99618.00;;;6.11;100.00
29433;BME280;16405;53.964;13.448;2023-03-26T04:42:39;99624.19;;;6.09;100.00
29433;BME280;16405;53.964;13.448;2023-03-26T04:45:19;99618.56;;;5.99;100.00
29433;BME280;16405;53.964;13.448;2023-03-26T04:48:01;99623.50;;;6.05;100.00
29433;BME280;16405;53.964;13.448;2023-03-26T04:50:48;99628.38;;;6.13;100.00
29433;BME280;16405;53.964;13.448;2023-03-26T04:53:20;99628.44;;;6.11;100.00
29433;BME280;16405;53.964;13.448;2023-03-26T04:59:38;99626.19;;;6.04;100.00
29433;BME280;16405;53.964;13.448;2023-03-26T05:02:18;99630.28;;;6.09;100.00
29433;BME280;16405;53.964;13.448;2023-03-26T05:05:00;99632.75;;;6.12;100.00
29433;BME280;16405;53.964;13.448;2023-03-26T05:07:28;99632.81;;;6.11;100.00
29433;BME280;16405;53.964;13.448;2023-03-26T05:10:03;99634.31;;;6.16;100.00
29433;BME280;16405;53.964;13.448;2023-03-26T05:12:31;99632.63;;;6.15;100.00
29433;BME280;16405;53.964;13.448;2023-03-26T05:14:57;99634.38;;;6.15;100.00
29433;BME280;16405;53.964;13.448;2023-03-26T05:17:35;99635.09;;;6.19;100.00
29433;BME280;16405;53.964;13.448;2023-03-26T05:20:28;99632.25;;;6.23;100.00
29433;BME280;16405;53.964;13.448;2023-03-26T05:22:57;99637.47;;;6.23;100.00
29433;BME280;16405;53.964;13.448;2023-03-26T05:25:30;99634.72;;;6.26;100.00
29433;BME280;16405;53.964;13.448;2023-03-26T05:27:57;99646.09;;;6.25;100.00
29433;BME280;16405;53.964;13.448;2023-03-26T05:30:23;99636.09;;;6.35;100.00
29433;BME280;16405;53.964;13.448;2023-03-26T05:32:49;99643.50;;;6.44;100.00
29433;BME280;16405;53.964;13.448;2023-03-26T05:35:42;99644.81;;;6.53;100.00
29433;BME280;16405;53.964;13.448;2023-03-26T05:38:08;99643.22;;;6.50;100.00
29433;BME280;16405;53.964;13.448;2023-03-26T05:40:43;99655.97;;;6.56;100.00
29433;BME280;16405;53.964;13.448;2023-03-26T05:43:09;99643.63;;;6.41;100.00
29433;BME280;16405;53.964;13.448;2023-03-26T05:45:47;99650.78;;;6.38;100.00
29433;BME280;16405;53.964;13.448;2023-03-26T05:48:15;99642.94;;;6.38;100.00
29433;BME280;16405;53.964;13.448;2023-03-26T05:50:41;99640.03;;;6.44;100.00
29433;BME280;16405;53.964;13.448;2023-03-26T05:53:27;99657.84;;;6.54;100.00
29433;BME280;16405;53.964;13.448;2023-03-26T05:55:56;99666.03;;;6.66;100.00
29433;BME280;16405;53.964;13.448;2023-03-26T05:58:38;99660.03;;;6.45;100.00
29433;BME280;16405;53.964;13.448;2023-03-26T06:01:27;99664.91;;;6.33;100.00
29433;BME280;16405;53.964;13.448;2023-03-26T06:03:58;99656.63;;;6.43;100.00
29433;BME280;16405;53.964;13.448;2023-03-26T06:06:33;99661.28;;;6.55;100.00
29433;BME280;16405;53.964;13.448;2023-03-26T06:08:59;99655.00;;;6.59;100.00
29433;BME280;16405;53.964;13.448;2023-03-26T06:11:29;99660.16;;;6.61;100.00
29433;BME280;16405;53.964;13.448;2023-03-26T06:14:06;99661.19;;;6.56;100.00
29433;BME280;16405;53.964;13.448;2023-03-26T06:16:32;99664.41;;;6.63;100.00
29433;BME280;16405;53.964;13.448;2023-03-26T06:19:07;99667.13;;;6.79;100.00
29433;BME280;16405;53.964;13.448;2023-03-26T06:21:33;99666.22;;;6.97;100.00
29433;BME280;16405;53.964;13.448;2023-03-26T06:23:59;99671.97;;;7.40;100.00
29433;BME280;16405;53.964;13.448;2023-03-26T06:26:25;99671.59;;;7.48;100.00
29433;BME280;16405;53.964;13.448;2023-03-26T06:29:01;99679.50;;;7.64;100.00
29433;BME280;16405;53.964;13.448;2023-03-26T06:31:27;99686.72;;;9.67;94.12
29433;BME280;16405;53.964;13.448;2023-03-26T06:33:53;99690.22;;;10.68;89.35
29433;BME280;16405;53.964;13.448;2023-03-26T06:36:28;99691.78;;;10.43;85.79
29433;BME280;16405;53.964;13.448;2023-03-26T06:38:53;99683.19;;;9.97;85.09
29433;BME280;16405;53.964;13.448;2023-03-26T06:41:20;99680.75;;;9.79;85.50
29433;BME280;16405;53.964;13.448;2023-03-26T06:43:52;99684.66;;;9.28;86.01
29433;BME280;16405;53.964;13.448;2023-03-26T06:46:18;99686.06;;;9.03;87.50
29433;BME280;16405;53.964;13.448;2023-03-26T06:48:45;99691.00;;;8.61;88.83
29433;BME280;16405;53.964;13.448;2023-03-26T06:51:12;99694.16;;;8.35;90.60
29433;BME280;16405;53.964;13.448;2023-03-26T06:53:47;99688.84;;;8.03;91.99
29433;BME280;16405;53.964;13.448;2023-03-26T06:56:14;99691.91;;;7.78;92.79
29433;BME280;16405;53.964;13.448;2023-03-26T06:58:49;99687.78;;;7.56;94.13
29433;BME280;16405;53.964;13.448;2023-03-26T07:01:18;99697.78;;;7.48;95.35
29433;BME280;16405;53.964;13.448;2023-03-26T07:06:36;99695.75;;;7.71;95.46
29433;BME280;16405;53.964;13.448;2023-03-26T07:09:02;99696.09;;;8.31;94.78
29433;BME280;16405;53.964;13.448;2023-03-26T07:11:37;99717.13;;;11.80;86.47
29433;BME280;16405;53.964;13.448;2023-03-26T07:14:03;99730.69;;;13.62;75.16
29433;BME280;16405;53.964;13.448;2023-03-26T07:16:29;99731.97;;;16.63;66.21
29433;BME280;16405;53.964;13.448;2023-03-26T07:19:05;99717.78;;;15.37;64.65
29433;BME280;16405;53.964;13.448;2023-03-26T07:21:35;99724.44;;;14.88;66.54
29433;BME280;16405;53.964;13.448;2023-03-26T07:24:17;99708.59;;;13.39;68.28
29433;BME280;16405;53.964;13.448;2023-03-26T07:33:41;99699.56;;;12.06;72.86
29433;BME280;16405;53.964;13.448;2023-03-26T07:43:25;99708.53;;;11.91;75.11
29433;BME280;16405;53.964;13.448;2023-03-26T07:49:15;99719.91;;;12.17;72.55
29433;BME280;16405;53.964;13.448;2023-03-26T07:51:45;99712.56;;;11.97;72.97
29433;BME280;16405;53.964;13.448;2023-03-26T07:54:17;99717.34;;;11.64;73.95
29433;BME280;16405;53.964;13.448;2023-03-26T08:06:39;99719.84;;;6.89;85.08
29433;BME280;16405;53.964;13.448;2023-03-26T08:10:11;99713.44;;;6.20;89.34
29433;BME280;16405;53.964;13.448;2023-03-26T08:16:18;99720.56;;;5.75;96.86
29433;BME280;16405;53.964;13.448;2023-03-26T08:19:47;99732.69;;;5.76;98.94
29433;BME280;16405;53.964;13.448;2023-03-26T08:22:34;99733.75;;;5.93;100.00
29433;BME280;16405;53.964;13.448;2023-03-26T08:25:27;99730.34;;;6.51;100.00
29433;BME280;16405;53.964;13.448;2023-03-26T08:31:10;99739.59;;;8.69;91.43
29433;BME280;16405;53.964;13.448;2023-03-26T08:33:48;99739.81;;;8.48;87.32
29433;BME280;16405;53.964;13.448;2023-03-26T08:36:28;99738.03;;;8.49;87.34
29433;BME280;16405;53.964;13.448;2023-03-26T08:38:55;99739.81;;;8.15;88.51
29433;BME280;16405;53.964;13.448;2023-03-26T08:56:05;99746.84;;;7.45;92.41
29433;BME280;16405;53.964;13.448;2023-03-26T08:58:56;99750.53;;;7.58;92.97
29433;BME280;16405;53.964;13.448;2023-03-26T09:26:23;99752.03;;;7.10;86.90
29433;BME280;16405;53.964;13.448;2023-03-26T09:32:14;99758.59;;;7.18;85.26
29433;BME280;16405;53.964;13.448;2023-03-26T09:38:05;99769.56;;;7.44;82.52
29433;BME280;16405;53.964;13.448;2023-03-26T09:41:13;99766.34;;;7.56;80.94
29433;BME280;16405;53.964;13.448;2023-03-26T10:18:08;99773.16;;;8.46;71.53
29433;BME280;16405;53.964;13.448;2023-03-26T10:21:21;99766.13;;;7.96;72.31
29433;BME280;16405;53.964;13.448;2023-03-26T10:28:12;99786.38;;;8.27;74.64
29433;BME280;16405;53.964;13.448;2023-03-26T10:37:08;99803.75;;;8.79;72.24
29433;BME280;16405;53.964;13.448;2023-03-26T10:40:33;99781.06;;;8.62;69.97
29433;BME280;16405;53.964;13.448;2023-03-26T10:43:52;99763.53;;;8.12;69.57
29433;BME280;16405;53.964;13.448;2023-03-26T10:55:53;99801.59;;;8.87;69.61
29433;BME280;16405;53.964;13.448;2023-03-26T10:58:33;99799.53;;;8.76;68.68
29433;BME280;16405;53.964;13.448;2023-03-26T11:01:15;99805.06;;;9.19;69.44
29433;BME280;16405;53.964;13.448;2023-03-26T11:03:54;99812.94;;;9.51;68.05
29433;BME280;16405;53.964;13.448;2023-03-26T11:09:51;99824.63;;;9.45;66.95
29433;BME280;16405;53.964;13.448;2023-03-26T11:19:06;99801.63;;;8.36;67.61
29433;BME280;16405;53.964;13.448;2023-03-26T11:25:50;99812.84;;;7.88;68.89
29433;BME280;16405;53.964;13.448;2023-03-26T11:35:13;99809.06;;;7.93;68.12
29433;BME280;16405;53.964;13.448;2023-03-26T11:37:53;99823.72;;;8.15;67.80
29433;BME280;16405;53.964;13.448;2023-03-26T11:41:00;99823.78;;;7.96;67.71
29433;BME280;16405;53.964;13.448;2023-03-26T11:43:37;99826.88;;;7.87;67.97
29433;BME280;16405;53.964;13.448;2023-03-26T11:46:11;99829.19;;;8.10;67.87
29433;BME280;16405;53.964;13.448;2023-03-26T11:48:57;99831.41;;;8.18;67.35
29433;BME280;16405;53.964;13.448;2023-03-26T11:51:41;99832.78;;;8.08;67.39
29433;BME280;16405;53.964;13.448;2023-03-26T11:54:19;99828.19;;;7.78;67.19
29433;BME280;16405;53.964;13.448;2023-03-26T11:56:56;99832.03;;;7.34;68.08
29433;BME280;16405;53.964;13.448;2023-03-26T12:05:33;99840.66;;;7.73;69.58
29433;BME280;16405;53.964;13.448;2023-03-26T12:08:18;99854.72;;;8.07;68.65
29433;BME280;16405;53.964;13.448;2023-03-26T12:11:06;99839.34;;;7.81;67.08
29433;BME280;16405;53.964;13.448;2023-03-26T12:13:44;99825.44;;;7.62;67.00
29433;BME280;16405;53.964;13.448;2023-03-26T12:16:28;99836.28;;;7.73;66.67
29433;BME280;16405;53.964;13.448;2023-03-26T12:19:19;99831.75;;;7.58;65.73
29433;BME280;16405;53.964;13.448;2023-03-26T12:21:50;99832.19;;;7.68;67.27
29433;BME280;16405;53.964;13.448;2023-03-26T12:24:37;99840.25;;;7.27;67.14
29433;BME280;16405;53.964;13.448;2023-03-26T12:27:23;99845.63;;;7.24;68.71
29433;BME280;16405;53.964;13.448;2023-03-26T12:32:48;99859.19;;;7.87;70.14
29433;BME280;16405;53.964;13.448;2023-03-26T12:35:45;99847.63;;;7.91;67.73
29433;BME280;16405;53.964;13.448;2023-03-26T12:38:36;99846.53;;;7.95;66.97
29433;BME280;16405;53.964;13.448;2023-03-26T12:41:19;99854.78;;;8.22;66.64
29433;BME280;16405;53.964;13.448;2023-03-26T12:47:30;99869.22;;;8.66;66.14
29433;BME280;16405;53.964;13.448;2023-03-26T12:50:18;99867.53;;;8.30;64.50
29433;BME280;16405;53.964;13.448;2023-03-26T13:19:32;99881.13;;;7.67;67.47
29433;BME280;16405;53.964;13.448;2023-03-26T13:22:58;99879.09;;;8.09;67.20
29433;BME280;16405;53.964;13.448;2023-03-26T13:53:23;99876.63;;;8.23;63.43
29433;BME280;16405;53.964;13.448;2023-03-26T13:56:32;99868.44;;;8.64;63.31
29433;BME280;16405;53.964;13.448;2023-03-26T14:53:37;99881.44;;;6.24;66.83
29433;BME280;16405;53.964;13.448;2023-03-26T15:07:29;99883.53;;;5.93;68.43
29433;BME280;16405;53.964;13.448;2023-03-26T15:39:43;99893.47;;;6.07;66.25
29433;BME280;16405;53.964;13.448;2023-03-26T15:50:23;99913.94;;;6.18;67.38
29433;BME280;16405;53.964;13.448;2023-03-26T15:57:31;99900.88;;;6.18;66.79
29433;BME280;16405;53.964;13.448;2023-03-26T16:04:17;99900.38;;;6.08;68.44
29433;BME280;16405;53.964;13.448;2023-03-26T16:45:05;99921.41;;;5.83;68.84
29433;BME280;16405;53.964;13.448;2023-03-26T16:52:18;99921.94;;;5.69;70.18
29433;BME280;16405;53.964;13.448;2023-03-26T17:02:06;99935.22;;;5.41;70.56
29433;BME280;16405;53.964;13.448;2023-03-26T17:26:04;99950.13;;;4.65;74.46
29433;BME280;16405;53.964;13.448;2023-03-26T17:41:47;99969.06;;;4.70;76.96
29433;BME280;16405;53.964;13.448;2023-03-26T17:50:54;99982.31;;;4.64;75.23
29433;BME280;16405;53.964;13.448;2023-03-26T17:53:33;99976.41;;;4.59;74.16
29433;BME280;16405;53.964;13.448;2023-03-26T18:19:23;99998.69;;;4.16;80.48
29433;BME280;16405;53.964;13.448;2023-03-26T18:22:03;100001.47;;;4.10;81.15
29433;BME280;16405;53.964;13.448;2023-03-26T18:27:43;100007.78;;;4.03;81.53
29433;BME280;16405;53.964;13.448;2023-03-26T18:34:05;100017.44;;;3.99;82.88
29433;BME280;16405;53.964;13.448;2023-03-26T18:37:33;100021.38;;;3.84;83.57
29433;BME280;16405;53.964;13.448;2023-03-26T18:40:38;100019.44;;;3.63;83.42
29433;BME280;16405;53.964;13.448;2023-03-26T18:43:23;100022.41;;;3.49;84.12
29433;BME280;16405;53.964;13.448;2023-03-26T18:46:02;100017.81;;;3.27;84.75
29433;BME280;16405;53.964;13.448;2023-03-26T18:48:30;100017.31;;;3.15;85.22
29433;BME280;16405;53.964;13.448;2023-03-26T19:01:33;100020.53;;;2.57;86.05
29433;BME280;16405;53.964;13.448;2023-03-26T19:04:41;100016.50;;;2.45;86.58
29433;BME280;16405;53.964;13.448;2023-03-26T19:07:14;100018.41;;;2.37;86.81
29433;BME280;16405;53.964;13.448;2023-03-26T19:10:02;100014.34;;;2.27;87.22
29433;BME280;16405;53.964;13.448;2023-03-26T19:12:31;100017.97;;;2.20;87.46
29433;BME280;16405;53.964;13.448;2023-03-26T19:15:42;100023.31;;;2.14;87.39
29433;BME280;16405;53.964;13.448;2023-03-26T19:18:52;100017.50;;;2.02;87.13
29433;BME280;16405;53.964;13.448;2023-03-26T19:21:20;100017.81;;;1.90;87.18
29433;BME280;16405;53.964;13.448;2023-03-26T19:24:10;100020.53;;;1.84;87.67
29433;BME280;16405;53.964;13.448;2023-03-26T19:27:09;100019.84;;;1.76;87.81
29433;BME280;16405;53.964;13.448;2023-03-26T19:30:34;100012.34;;;1.62;88.56
29433;BME280;16405;53.964;13.448;2023-03-26T19:36:33;100004.94;;;1.45;89.26
29433;BME280;16405;53.964;13.448;2023-03-26T19:39:43;100013.69;;;1.38;89.63
29433;BME280;16405;53.964;13.448;2023-03-26T19:42:48;100018.22;;;1.28;89.85
29433;BME280;16405;53.964;13.448;2023-03-26T19:46:01;100025.28;;;1.21;90.08
29433;BME280;16405;53.964;13.448;2023-03-26T19:58:51;100014.47;;;0.99;91.80
29433;BME280;16405;53.964;13.448;2023-03-26T20:01:34;100022.41;;;0.90;92.63
29433;BME280;16405;53.964;13.448;2023-03-26T20:04:09;100019.88;;;0.87;92.78
29433;BME280;16405;53.964;13.448;2023-03-26T20:06:37;100012.22;;;0.79;92.78
29433;BME280;16405;53.964;13.448;2023-03-26T20:09:12;100020.06;;;0.76;92.84
29433;BME280;16405;53.964;13.448;2023-03-26T20:11:45;100018.41;;;0.72;93.71
29433;BME280;16405;53.964;13.448;2023-03-26T20:14:24;100023.59;;;0.71;94.51
29433;BME280;16405;53.964;13.448;2023-03-26T20:17:03;100035.63;;;0.75;96.06
29433;BME280;16405;53.964;13.448;2023-03-26T20:19:58;100038.94;;;0.83;97.56
29433;BME280;16405;53.964;13.448;2023-03-26T20:22:40;100041.53;;;0.85;97.67
29433;BME280;16405;53.964;13.448;2023-03-26T20:25:32;100044.94;;;0.87;97.85
29433;BME280;16405;53.964;13.448;2023-03-26T20:28:49;100034.44;;;0.93;98.01
29433;BME280;16405;53.964;13.448;2023-03-26T20:34:55;100040.97;;;1.14;99.60
29433;BME280;16405;53.964;13.448;2023-03-26T20:49:02;100047.78;;;1.19;97.67
29433;BME280;16405;53.964;13.448;2023-03-26T20:52:00;100046.16;;;1.15;97.22
29433;BME280;16405;53.964;13.448;2023-03-26T20:57:50;100052.34;;;1.08;97.87
29433;BME280;16405;53.964;13.448;2023-03-26T21:03:44;100059.09;;;1.15;98.28
29433;BME280;16405;53.964;13.448;2023-03-26T21:20:52;100064.09;;;1.26;97.21
29433;BME280;16405;53.964;13.448;2023-03-26T21:23:39;100073.75;;;1.18;96.49
29433;BME280;16405;53.964;13.448;2023-03-26T21:26:40;100069.66;;;1.06;96.32
29433;BME280;16405;53.964;13.448;2023-03-26T21:29:30;100072.31;;;1.01;96.51
29433;BME280;16405;53.964;13.448;2023-03-26T21:32:16;100080.22;;;0.95;96.37
29433;BME280;16405;53.964;13.448;2023-03-26T21:34:52;100075.91;;;0.94;95.64
29433;BME280;16405;53.964;13.448;2023-03-26T21:37:19;100081.09;;;0.94;94.80
29433;BME280;16405;53.964;13.448;2023-03-26T21:42:39;100076.94;;;0.84;92.88
29433;BME280;16405;53.964;13.448;2023-03-26T21:45:19;100074.38;;;0.82;92.89
29433;BME280;16405;53.964;13.448;2023-03-26T21:48:29;100088.28;;;0.77;92.30
29433;BME280;16405;53.964;13.448;2023-03-26T21:51:29;100080.66;;;0.69;92.21
29433;BME280;16405;53.964;13.448;2023-03-26T21:54:39;100089.38;;;0.64;92.80
29433;BME280;16405;53.964;13.448;2023-03-26T22:00:28;100083.53;;;0.52;92.40
29433;BME280;16405;53.964;13.448;2023-03-26T22:03:24;100083.63;;;0.46;92.64
29433;BME280;16405;53.964;13.448;2023-03-26T22:10:19;100089.88;;;0.33;92.93
29433;BME280;16405;53.964;13.448;2023-03-26T22:12:48;100089.88;;;0.31;92.64
29433;BME280;16405;53.964;13.448;2023-03-26T22:15:26;100090.72;;;0.32;92.66
29433;BME280;16405;53.964;13.448;2023-03-26T22:18:20;100102.81;;;0.33;92.51
29433;BME280;16405;53.964;13.448;2023-03-26T22:20:49;100102.81;;;0.31;92.05
29433;BME280;16405;53.964;13.448;2023-03-26T22:26:57;100107.19;;;0.28;93.08
29433;BME280;16405;53.964;13.448;2023-03-26T22:29:32;100111.56;;;0.24;92.81
29433;BME280;16405;53.964;13.448;2023-03-26T22:32:01;100107.25;;;0.23;92.42
29433;BME280;16405;53.964;13.448;2023-03-26T22:34:40;100110.75;;;0.19;92.92
29433;BME280;16405;53.964;13.448;2023-03-26T22:37:29;100109.09;;;0.15;92.59
29433;BME280;16405;53.964;13.448;2023-03-26T22:42:40;100121.22;;;0.11;92.40
29433;BME280;16405;53.964;13.448;2023-03-26T22:45:18;100120.41;;;0.09;92.68
29433;BME280;16405;53.964;13.448;2023-03-26T22:47:52;100124.75;;;0.07;92.33
29433;BME280;16405;53.964;13.448;2023-03-26T22:50:32;100129.91;;;0.07;92.42
29433;BME280;16405;53.964;13.448;2023-03-26T22:52:58;100135.03;;;0.10;92.56
29433;BME280;16405;53.964;13.448;2023-03-26T22:55:45;100134.13;;;0.13;92.74
29433;BME280;16405;53.964;13.448;2023-03-26T22:58:18;100142.88;;;0.07;92.75
29433;BME280;16405;53.964;13.448;2023-03-26T23:00:47;100147.13;;;0.10;92.55
29433;BME280;16405;53.964;13.448;2023-03-26T23:03:22;100153.13;;;0.13;92.21
29433;BME280;16405;53.964;13.448;2023-03-26T23:06:10;100155.78;;;0.09;91.91
29433;BME280;16405;53.964;13.448;2023-03-26T23:08:48;100153.28;;;0.03;91.91
29433;BME280;16405;53.964;13.448;2023-03-26T23:11:20;100143.00;;;-0.07;91.74
29433;BME280;16405;53.964;13.448;2023-03-26T23:13:50;100145.72;;;-0.16;91.62
29433;BME280;16405;53.964;13.448;2023-03-26T23:16:17;100151.00;;;-0.25;91.26
29433;BME280;16405;53.964;13.448;2023-03-26T23:19:05;100145.06;;;-0.35;91.19
29433;BME280;16405;53.964;13.448;2023-03-26T23:21:35;100147.78;;;-0.44;91.36
29433;BME280;16405;53.964;13.448;2023-03-26T23:24:27;100145.34;;;-0.58;91.40
29433;BME280;16405;53.964;13.448;2023-03-26T23:26:55;100145.44;;;-0.69;91.77
29433;BME280;16405;53.964;13.448;2023-03-26T23:29:20;100149.00;;;-0.80;91.83
29433;BME280;16405;53.964;13.448;2023-03-26T23:31:56;100154.22;;;-0.85;92.27